Time;durP1;ratioP1;P1;durP2;ratioP2;P2;SDS_P1;SDS_P2;PMS_P1;PMS_P2;Temp;Humidity;BMP_temperature;BMP_pressure;BME280_temperature;BME280_humidity;BME280_pressure;Samples;Min_cycle;Max_cycle;Signal;HPM_P1;HPM_P2
2024/01/04 00:00:23;;;;;;;6.65;1.40;;;;;;;;;;4985206;28;20479;-49
2024/01/04 00:02:49;;;;;;;7.13;1.55;;;;;;;;;;4986573;28;20031;-53
2024/01/04 00:05:15;;;;;;;4.32;2.00;;;;;;;;;;4991186;28;20039;-48
2024/01/04 00:07:41;;;;;;;5.95;1.67;;;;;;;;;;4982019;28;20056;-46
2024/01/04 00:10:07;;;;;;;4.15;1.00;;;;;;;;;;4982275;28;20113;-48
2024/01/04 00:12:32;;;;;;;6.50;1.55;;;;;;;;;;4993868;28;20059;-50
2024/01/04 00:14:59;;;;;;;5.50;1.13;;;;;;;;;;4994831;28;20109;-48
2024/01/04 00:17:25;;;;;;;8.68;1.65;;;;;;;;;;4960412;28;20031;-46
2024/01/04 00:19:50;;;;;;;5.25;2.05;;;;;;;;;;4990634;28;20370;-47
2024/01/04 00:22:16;;;;;;;3.53;1.10;;;;;;;;;;5005652;28;20019;-48
2024/01/04 00:24:42;;;;;;;3.95;1.13;;;;;;;;;;4982261;28;20049;-50
2024/01/04 00:27:07;;;;;;;4.43;1.42;;;;;;;;;;4982280;28;20065;-47
2024/01/04 00:29:32;;;;;;;4.70;1.73;;;;;;;;;;4984869;28;20034;-51
2024/01/04 00:31:58;;;;;;;5.43;1.25;;;;;;;;;;4984312;28;20049;-50
2024/01/04 00:34:23;;;;;;;6.30;1.17;;;;;;;;;;4986890;28;20077;-51
2024/01/04 00:36:49;;;;;;;3.95;0.80;;;;;;;;;;4996258;28;20686;-52
2024/01/04 00:39:14;;;;;;;5.15;1.23;;;;;;;;;;4979108;28;20041;-47
2024/01/04 00:41:40;;;;;;;2.47;0.75;;;;;;;;;;4989942;28;20041;-48
2024/01/04 00:44:05;;;;;;;6.32;1.83;;;;;;;;;;4989301;28;20456;-52
2024/01/04 00:46:30;;;;;;;4.47;1.67;;;;;;;;;;4991737;28;20026;-48
2024/01/04 00:48:56;;;;;;;7.85;1.65;;;;;;;;;;4968715;28;20108;-50
2024/01/04 00:51:21;;;;;;;3.03;1.00;;;;;;;;;;4962289;28;20051;-47
2024/01/04 00:53:47;;;;;;;7.53;1.98;;;;;;;;;;4972540;28;20052;-50
2024/01/04 00:56:13;;;;;;;4.75;1.05;;;;;;;;;;4994640;28;20029;-51
2024/01/04 00:58:39;;;;;;;7.05;2.13;;;;;;;;;;4985899;28;20113;-50
2024/01/04 01:01:04;;;;;;;4.25;1.23;;;;;;;;;;4962115;28;20038;-48
2024/01/04 01:03:30;;;;;;;5.32;1.40;;;;;;;;;;4993378;28;20061;-49
2024/01/04 01:05:56;;;;;;;3.53;1.25;;;;;;;;;;4990632;28;20484;-51
2024/01/04 01:08:21;;;;;;;5.32;1.63;;;;;;;;;;4984824;28;20173;-51
2024/01/04 01:10:47;;;;;;;5.40;1.85;;;;;;;;;;4975012;28;20046;-50
2024/01/04 01:13:19;;;;;;;6.47;1.88;;;;;;;;;;4985500;28;20057;-48
2024/01/04 01:15:45;;;;;;;5.82;2.63;;;;;;;;;;4994856;28;20038;-49
2024/01/04 01:18:11;;;;;;;5.57;2.53;;;;;;;;;;4990791;28;20041;-52
2024/01/04 01:20:36;;;;;;;5.75;2.28;;;;;;;;;;4978632;28;20066;-53
2024/01/04 01:23:02;;;;;;;8.07;3.05;;;;;;;;;;4995361;28;20024;-44
2024/01/04 01:25:27;;;;;;;6.60;2.80;;;;;;;;;;4985240;28;20030;-49
2024/01/04 01:27:52;;;;;;;8.73;2.83;;;;;;;;;;4981229;28;20544;-47
2024/01/04 01:30:18;;;;;;;6.15;2.55;;;;;;;;;;4983228;28;20077;-51
2024/01/04 01:32:43;;;;;;;5.68;1.73;;;;;;;;;;4992589;28;20030;-48
2024/01/04 01:35:09;;;;;;;8.70;2.42;;;;;;;;;;4985725;28;20512;-51
2024/01/04 01:37:34;;;;;;;4.93;2.05;;;;;;;;;;4993996;28;20035;-50
2024/01/04 01:40:00;;;;;;;7.43;4.05;;;;;;;;;;4989212;28;20041;-48
2024/01/04 01:42:25;;;;;;;6.72;3.42;;;;;;;;;;4990824;28;20025;-48
2024/01/04 01:44:51;;;;;;;10.48;3.13;;;;;;;;;;4989151;28;20113;-49
2024/01/04 01:47:16;;;;;;;9.48;3.05;;;;;;;;;;4969388;28;20038;-49
2024/01/04 01:49:42;;;;;;;8.73;3.13;;;;;;;;;;4972820;28;20068;-50
2024/01/04 01:52:07;;;;;;;6.22;3.08;;;;;;;;;;4991579;28;20050;-50
2024/01/04 01:54:33;;;;;;;7.03;2.72;;;;;;;;;;4970981;28;20179;-47
2024/01/04 01:56:58;;;;;;;11.65;3.25;;;;;;;;;;4987652;28;20038;-47
2024/01/04 01:59:24;;;;;;;6.97;1.67;;;;;;;;;;4972495;28;20554;-49
2024/01/04 02:01:51;;;;;;;6.40;1.90;;;;;;;;;;4997230;28;20053;-47
2024/01/04 02:04:16;;;;;;;6.55;2.35;;;;;;;;;;4989990;28;20043;-51
2024/01/04 02:06:42;;;;;;;8.15;3.53;;;;;;;;;;4993980;28;20113;-48
2024/01/04 02:09:07;;;;;;;7.47;2.30;;;;;;;;;;4982017;28;20037;-51
2024/01/04 02:11:32;;;;;;;6.57;2.45;;;;;;;;;;4968980;28;20037;-50
2024/01/04 02:13:58;;;;;;;5.93;2.50;;;;;;;;;;4984380;28;20522;-50
2024/01/04 02:16:23;;;;;;;4.57;1.83;;;;;;;;;;4985933;28;20030;-50
2024/01/04 02:18:49;;;;;;;6.63;3.25;;;;;;;;;;4988031;28;20065;-49
2024/01/04 02:21:14;;;;;;;6.63;2.53;;;;;;;;;;4984524;28;20073;-51
2024/01/04 02:23:39;;;;;;;3.25;1.35;;;;;;;;;;4991243;28;20793;-47
2024/01/04 02:26:05;;;;;;;2.70;1.15;;;;;;;;;;4989728;28;20133;-48
2024/01/04 02:28:30;;;;;;;6.55;1.48;;;;;;;;;;4990474;28;20044;-48
2024/01/04 02:30:56;;;;;;;6.97;1.90;;;;;;;;;;4965760;28;20066;-48
2024/01/04 02:33:21;;;;;;;4.65;1.92;;;;;;;;;;4991364;28;20100;-47
2024/01/04 02:35:46;;;;;;;6.03;1.85;;;;;;;;;;4994019;28;20034;-46
2024/01/04 02:38:12;;;;;;;6.85;1.20;;;;;;;;;;4979618;28;20038;-52
2024/01/04 02:40:37;;;;;;;7.57;1.08;;;;;;;;;;4991934;28;20030;-48
2024/01/04 02:43:08;;;;;;;8.90;2.05;;;;;;;;;;4985977;28;20093;-50
2024/01/04 02:45:34;;;;;;;2.53;0.88;;;;;;;;;;4989234;28;20022;-47
2024/01/04 02:47:59;;;;;;;6.25;1.38;;;;;;;;;;4995007;28;20106;-50
2024/01/04 02:50:25;;;;;;;6.43;0.98;;;;;;;;;;4977151;28;20046;-49
2024/01/04 02:52:50;;;;;;;3.83;0.80;;;;;;;;;;4993551;28;20074;-48
2024/01/04 02:55:15;;;;;;;4.57;1.10;;;;;;;;;;4987831;28;20066;-51
2024/01/04 02:57:41;;;;;;;6.25;0.52;;;;;;;;;;4986687;28;20499;-50
2024/01/04 03:00:07;;;;;;;5.90;0.43;;;;;;;;;;4986466;28;20058;-50
2024/01/04 03:02:32;;;;;;;6.03;0.80;;;;;;;;;;4991384;28;20034;-48
2024/01/04 03:04:58;;;;;;;6.43;0.93;;;;;;;;;;4989740;28;20046;-49
2024/01/04 03:07:23;;;;;;;2.80;0.80;;;;;;;;;;4988868;28;20030;-50
2024/01/04 03:09:48;;;;;;;4.20;1.15;;;;;;;;;;4992281;28;20050;-50
2024/01/04 03:12:14;;;;;;;6.50;1.48;;;;;;;;;;4990919;28;20089;-46
2024/01/04 03:14:39;;;;;;;2.70;0.75;;;;;;;;;;4990473;28;20053;-51
2024/01/04 03:17:05;;;;;;;5.63;0.68;;;;;;;;;;4994878;28;20026;-51
2024/01/04 03:19:30;;;;;;;4.70;1.27;;;;;;;;;;4988449;28;20097;-50
2024/01/04 03:21:56;;;;;;;6.13;1.40;;;;;;;;;;4993407;28;20038;-49
2024/01/04 03:24:21;;;;;;;4.50;0.95;;;;;;;;;;4993875;28;20100;-46
2024/01/04 03:26:46;;;;;;;4.00;0.70;;;;;;;;;;5012155;28;20116;-46
2024/01/04 03:29:12;;;;;;;4.72;1.23;;;;;;;;;;4993439;28;20098;-47
2024/01/04 03:31:37;;;;;;;5.97;1.50;;;;;;;;;;4992925;28;20026;-52
2024/01/04 03:34:03;;;;;;;3.10;1.30;;;;;;;;;;4990290;28;20047;-49
2024/01/04 03:36:28;;;;;;;7.75;3.05;;;;;;;;;;4992630;28;20022;-48
2024/01/04 03:38:55;;;;;;;9.73;2.85;;;;;;;;;;4979740;28;20497;-50
2024/01/04 03:41:21;;;;;;;14.70;6.22;;;;;;;;;;4987235;28;20464;-50
2024/01/04 03:43:46;;;;;;;11.80;5.60;;;;;;;;;;4992202;28;20060;-49
2024/01/04 03:46:12;;;;;;;8.55;3.38;;;;;;;;;;4990059;28;20033;-48
2024/01/04 03:48:37;;;;;;;7.82;2.70;;;;;;;;;;4984691;28;20105;-47
2024/01/04 03:51:03;;;;;;;6.38;2.22;;;;;;;;;;4989276;28;20057;-51
2024/01/04 03:53:28;;;;;;;5.93;2.42;;;;;;;;;;4989128;28;20042;-47
2024/01/04 03:55:54;;;;;;;3.30;2.03;;;;;;;;;;4993396;28;20554;-49
2024/01/04 03:58:19;;;;;;;5.60;1.27;;;;;;;;;;4984775;28;20539;-47
2024/01/04 04:00:45;;;;;;;7.63;1.42;;;;;;;;;;4982160;28;20034;-52
2024/01/04 04:03:10;;;;;;;3.65;0.75;;;;;;;;;;4981410;28;20082;-49
2024/01/04 04:05:35;;;;;;;7.10;0.93;;;;;;;;;;4988703;28;20026;-51
2024/01/04 04:08:01;;;;;;;4.40;1.52;;;;;;;;;;4993127;28;20357;-50
2024/01/04 04:10:26;;;;;;;4.95;0.88;;;;;;;;;;4975251;28;20078;-49
2024/01/04 04:12:52;;;;;;;3.83;0.63;;;;;;;;;;4988151;28;20484;-50
2024/01/04 04:15:17;;;;;;;6.53;0.63;;;;;;;;;;4986775;28;20030;-46
2024/01/04 04:17:43;;;;;;;5.30;2.13;;;;;;;;;;4986095;28;20378;-51
2024/01/04 04:20:08;;;;;;;9.07;1.45;;;;;;;;;;4996409;28;20066;-52
2024/01/04 04:22:34;;;;;;;4.38;0.77;;;;;;;;;;4987912;28;20121;-49
2024/01/04 04:24:59;;;;;;;4.97;0.57;;;;;;;;;;4968031;28;20054;-47
2024/01/04 04:27:25;;;;;;;7.35;1.35;;;;;;;;;;4983481;28;20015;-49
2024/01/04 04:29:50;;;;;;;4.25;0.90;;;;;;;;;;4986354;28;20440;-49
2024/01/04 04:32:15;;;;;;;9.07;1.95;;;;;;;;;;4991925;28;20030;-47
2024/01/04 04:34:41;;;;;;;9.55;2.80;;;;;;;;;;4985890;28;20181;-48
2024/01/04 04:37:06;;;;;;;7.45;2.78;;;;;;;;;;4988484;28;20029;-51
2024/01/04 04:39:32;;;;;;;9.35;2.60;;;;;;;;;;4976540;28;20027;-49
2024/01/04 04:41:58;;;;;;;7.18;2.47;;;;;;;;;;4987199;28;20037;-52
2024/01/04 04:44:23;;;;;;;7.85;2.30;;;;;;;;;;5006164;28;20042;-51
2024/01/04 04:46:49;;;;;;;9.18;2.67;;;;;;;;;;4990182;28;20039;-49
2024/01/04 04:49:14;;;;;;;6.90;1.83;;;;;;;;;;4979781;28;20053;-47
2024/01/04 04:51:40;;;;;;;8.18;1.48;;;;;;;;;;4993187;28;20134;-50
2024/01/04 04:54:05;;;;;;;2.58;0.85;;;;;;;;;;4974170;28;20106;-50
2024/01/04 04:56:30;;;;;;;6.72;1.33;;;;;;;;;;4988060;28;20042;-50
2024/01/04 04:58:56;;;;;;;3.78;1.35;;;;;;;;;;4966404;28;20174;-47
2024/01/04 05:01:21;;;;;;;4.97;1.00;;;;;;;;;;4979757;28;20038;-47
2024/01/04 05:03:47;;;;;;;7.72;1.50;;;;;;;;;;4979777;28;20035;-48
2024/01/04 05:06:12;;;;;;;2.90;1.05;;;;;;;;;;4995731;28;20030;-53
2024/01/04 05:08:37;;;;;;;5.93;1.08;;;;;;;;;;4990372;28;20034;-50
2024/01/04 05:11:06;;;;;;;4.10;0.80;;;;;;;;;;4989573;28;20030;-48
2024/01/04 05:13:32;;;;;;;6.25;1.80;;;;;;;;;;4991005;28;20054;-48
2024/01/04 05:15:58;;;;;;;5.43;1.48;;;;;;;;;;4994298;28;20041;-46
2024/01/04 05:18:23;;;;;;;6.47;2.03;;;;;;;;;;4993986;28;20117;-49
2024/01/04 05:20:49;;;;;;;7.32;2.13;;;;;;;;;;4987735;28;20843;-51
2024/01/04 05:23:14;;;;;;;5.85;1.98;;;;;;;;;;4984744;28;20496;-51
2024/01/04 05:25:39;;;;;;;6.22;1.85;;;;;;;;;;4982110;28;20038;-49
2024/01/04 05:28:05;;;;;;;7.63;2.47;;;;;;;;;;4994638;28;20030;-47
2024/01/04 05:30:31;;;;;;;6.22;1.52;;;;;;;;;;4976049;28;20034;-51
2024/01/04 05:32:56;;;;;;;5.28;1.85;;;;;;;;;;4980964;28;20046;-49
2024/01/04 05:35:21;;;;;;;6.28;2.83;;;;;;;;;;4989922;28;20046;-48
2024/01/04 05:37:47;;;;;;;5.65;1.23;;;;;;;;;;4982616;28;20042;-47
2024/01/04 05:40:13;;;;;;;5.40;1.20;;;;;;;;;;4997643;28;20041;-49
2024/01/04 05:42:38;;;;;;;5.47;1.13;;;;;;;;;;4984755;28;20062;-49
2024/01/04 05:45:04;;;;;;;4.32;1.25;;;;;;;;;;4982146;28;20138;-48
2024/01/04 05:47:30;;;;;;;6.30;1.42;;;;;;;;;;4981150;28;20019;-50
2024/01/04 05:49:56;;;;;;;4.53;1.75;;;;;;;;;;4989187;28;20042;-50
2024/01/04 05:52:22;;;;;;;4.88;1.40;;;;;;;;;;4974077;28;20039;-51
2024/01/04 05:54:47;;;;;;;5.32;1.17;;;;;;;;;;4974867;28;20038;-50
2024/01/04 05:57:12;;;;;;;4.70;1.90;;;;;;;;;;4982219;28;20030;-50
2024/01/04 05:59:38;;;;;;;5.20;1.60;;;;;;;;;;4987489;28;20069;-48
2024/01/04 06:02:03;;;;;;;10.90;4.40;;;;;;;;;;4993081;28;20108;-48
2024/01/04 06:04:28;;;;;;;6.55;2.28;;;;;;;;;;4967038;28;20045;-46
2024/01/04 06:06:54;;;;;;;6.10;1.45;;;;;;;;;;4965601;28;20117;-50
2024/01/04 06:09:21;;;;;;;6.57;2.33;;;;;;;;;;4969277;28;20041;-51
2024/01/04 06:11:47;;;;;;;5.55;2.03;;;;;;;;;;4975194;28;20110;-50
2024/01/04 06:14:13;;;;;;;8.52;3.88;;;;;;;;;;4982111;28;20130;-46
2024/01/04 06:16:38;;;;;;;6.32;2.92;;;;;;;;;;4984006;28;20035;-49
2024/01/04 06:19:04;;;;;;;9.00;2.45;;;;;;;;;;4987487;28;20805;-47
2024/01/04 06:21:29;;;;;;;7.80;1.77;;;;;;;;;;4983708;28;20062;-48
2024/01/04 06:23:56;;;;;;;9.10;2.33;;;;;;;;;;4983144;28;20117;-48
2024/01/04 06:26:23;;;;;;;5.75;0.93;;;;;;;;;;4985922;28;20065;-49
2024/01/04 06:28:49;;;;;;;6.40;1.88;;;;;;;;;;4997951;28;20046;-48
2024/01/04 06:31:14;;;;;;;7.03;2.45;;;;;;;;;;5000657;28;20034;-51
2024/01/04 06:33:40;;;;;;;5.53;2.45;;;;;;;;;;4973983;28;20046;-49
2024/01/04 06:36:06;;;;;;;7.55;1.75;;;;;;;;;;4980665;28;20038;-47
2024/01/04 06:38:32;;;;;;;5.88;1.58;;;;;;;;;;4986141;28;20030;-52
2024/01/04 06:40:58;;;;;;;4.63;2.05;;;;;;;;;;4995918;28;20085;-46
2024/01/04 06:43:24;;;;;;;3.13;1.50;;;;;;;;;;4996298;28;20126;-48
2024/01/04 06:45:51;;;;;;;10.77;4.97;;;;;;;;;;4991710;28;20082;-49
2024/01/04 06:48:16;;;;;;;9.65;2.33;;;;;;;;;;4993971;28;20038;-47
2024/01/04 06:50:43;;;;;;;11.77;4.22;;;;;;;;;;4991732;28;20023;-48
2024/01/04 06:53:10;;;;;;;9.90;3.25;;;;;;;;;;4993045;28;20022;-48
2024/01/04 06:55:35;;;;;;;7.43;3.45;;;;;;;;;;4996670;28;20078;-47
2024/01/04 06:58:01;;;;;;;10.45;5.40;;;;;;;;;;4991596;28;20635;-52
2024/01/04 07:00:26;;;;;;;14.13;5.82;;;;;;;;;;4981756;28;20539;-50
2024/01/04 07:02:52;;;;;;;10.43;3.78;;;;;;;;;;4994055;28;20022;-52
2024/01/04 07:05:17;;;;;;;8.57;2.45;;;;;;;;;;4999644;28;20129;-49
2024/01/04 07:07:42;;;;;;;10.27;3.72;;;;;;;;;;4991479;28;20054;-47
2024/01/04 07:10:09;;;;;;;9.80;3.67;;;;;;;;;;4995730;28;20038;-48
2024/01/04 07:12:35;;;;;;;16.05;5.15;;;;;;;;;;4991862;28;20045;-49
2024/01/04 07:15:00;;;;;;;8.20;3.55;;;;;;;;;;4990427;28;20038;-47
2024/01/04 07:17:25;;;;;;;10.20;4.57;;;;;;;;;;4992895;28;20033;-50
2024/01/04 07:19:51;;;;;;;6.95;3.45;;;;;;;;;;4981109;28;20043;-50
2024/01/04 07:22:16;;;;;;;16.73;5.50;;;;;;;;;;4995677;28;20162;-48
2024/01/04 07:24:43;;;;;;;9.43;4.15;;;;;;;;;;4980520;28;20416;-46
2024/01/04 07:27:10;;;;;;;10.27;3.67;;;;;;;;;;4991196;28;20026;-48
2024/01/04 07:29:36;;;;;;;10.70;4.70;;;;;;;;;;4987409;28;20061;-49
2024/01/04 07:32:01;;;;;;;5.43;2.65;;;;;;;;;;4993897;28;20023;-48
2024/01/04 07:34:27;;;;;;;5.72;2.85;;;;;;;;;;4987788;28;20046;-50
2024/01/04 07:36:52;;;;;;;8.45;2.92;;;;;;;;;;4979091;28;20080;-51
2024/01/04 07:39:18;;;;;;;6.90;2.80;;;;;;;;;;4991424;28;20088;-48
2024/01/04 07:41:43;;;;;;;9.20;2.55;;;;;;;;;;4974085;28;20054;-46
2024/01/04 07:44:10;;;;;;;8.23;2.38;;;;;;;;;;4989115;28;20070;-47
2024/01/04 07:46:36;;;;;;;9.93;3.28;;;;;;;;;;4990186;28;20093;-51
2024/01/04 07:49:04;;;;;;;3.70;2.38;;;;;;;;;;4993903;28;20046;-50
2024/01/04 07:51:29;;;;;;;7.25;2.42;;;;;;;;;;4994050;28;20054;-52
2024/01/04 07:53:55;;;;;;;7.68;2.50;;;;;;;;;;4995705;28;20030;-51
2024/01/04 07:56:20;;;;;;;10.15;2.53;;;;;;;;;;4993967;28;20034;-51
2024/01/04 07:58:45;;;;;;;4.78;3.03;;;;;;;;;;4985991;28;20042;-48
2024/01/04 08:01:11;;;;;;;7.60;3.72;;;;;;;;;;4983928;28;20022;-46
2024/01/04 08:03:36;;;;;;;10.52;3.55;;;;;;;;;;4991308;28;20034;-51
2024/01/04 08:06:02;;;;;;;7.05;2.90;;;;;;;;;;4988414;28;20074;-49
2024/01/04 08:08:27;;;;;;;10.23;3.65;;;;;;;;;;4989850;28;20041;-49
2024/01/04 08:10:53;;;;;;;9.45;3.10;;;;;;;;;;4991483;28;20081;-48
2024/01/04 08:13:19;;;;;;;5.55;2.85;;;;;;;;;;4993784;28;20519;-49
2024/01/04 08:15:44;;;;;;;7.93;3.58;;;;;;;;;;4990118;28;20095;-48
2024/01/04 08:18:09;;;;;;;7.95;4.03;;;;;;;;;;4992805;28;20031;-52
2024/01/04 08:20:35;;;;;;;8.27;3.88;;;;;;;;;;4985952;28;20026;-47
2024/01/04 08:23:00;;;;;;;9.77;4.30;;;;;;;;;;4975695;28;20535;-48
2024/01/04 08:25:27;;;;;;;7.30;4.40;;;;;;;;;;4996179;28;20022;-50
2024/01/04 08:27:52;;;;;;;7.53;4.13;;;;;;;;;;4994294;28;20033;-48
2024/01/04 08:30:18;;;;;;;6.18;4.65;;;;;;;;;;4985741;28;20039;-48
2024/01/04 08:32:43;;;;;;;7.78;3.60;;;;;;;;;;4999639;28;20038;-50
2024/01/04 08:35:09;;;;;;;8.98;3.28;;;;;;;;;;4974459;28;20096;-50
2024/01/04 08:37:34;;;;;;;8.13;3.38;;;;;;;;;;4985485;28;20082;-51
2024/01/04 08:39:59;;;;;;;12.07;4.07;;;;;;;;;;4996631;28;20056;-49
2024/01/04 08:42:25;;;;;;;7.53;1.88;;;;;;;;;;4993005;28;20041;-50
2024/01/04 08:44:50;;;;;;;5.13;2.45;;;;;;;;;;4990922;28;20096;-48
2024/01/04 08:47:16;;;;;;;6.47;2.03;;;;;;;;;;4990684;28;20728;-46
2024/01/04 08:49:41;;;;;;;8.85;2.28;;;;;;;;;;4992895;28;20544;-50
2024/01/04 08:52:06;;;;;;;4.50;1.92;;;;;;;;;;4986116;28;20077;-49
2024/01/04 08:54:32;;;;;;;7.95;2.33;;;;;;;;;;4974724;28;20042;-47
2024/01/04 08:56:57;;;;;;;7.30;2.33;;;;;;;;;;4976124;28;20060;-51
2024/01/04 08:59:23;;;;;;;9.10;3.28;;;;;;;;;;4985595;28;20484;-51
2024/01/04 09:01:49;;;;;;;9.63;4.13;;;;;;;;;;4994347;28;20022;-50
2024/01/04 09:04:15;;;;;;;9.98;3.70;;;;;;;;;;4972123;28;20070;-49
2024/01/04 09:06:40;;;;;;;6.95;2.63;;;;;;;;;;4990942;28;20026;-48
2024/01/04 09:09:07;;;;;;;6.43;3.20;;;;;;;;;;5003683;28;20057;-49
2024/01/04 09:11:38;;;;;;;8.40;3.97;;;;;;;;;;4993966;28;20034;-50
2024/01/04 09:14:07;;;;;;;5.18;1.92;;;;;;;;;;4979702;28;20046;-47
2024/01/04 09:16:34;;;;;;;5.93;3.45;;;;;;;;;;4985879;28;20553;-52
2024/01/04 09:19:00;;;;;;;8.00;3.95;;;;;;;;;;4985829;28;20050;-46
2024/01/04 09:21:26;;;;;;;8.85;4.28;;;;;;;;;;4981945;28;20023;-51
2024/01/04 09:23:52;;;;;;;5.78;3.65;;;;;;;;;;4988535;28;20039;-51
2024/01/04 09:26:18;;;;;;;8.18;2.95;;;;;;;;;;4985354;28;20109;-47
2024/01/04 09:28:43;;;;;;;11.07;4.07;;;;;;;;;;4971815;28;20128;-48
2024/01/04 09:31:09;;;;;;;9.73;2.85;;;;;;;;;;4984352;28;20026;-49
2024/01/04 09:33:35;;;;;;;8.23;2.80;;;;;;;;;;4991416;28;20042;-48
2024/01/04 09:36:00;;;;;;;8.77;3.38;;;;;;;;;;4988096;28;20039;-46
2024/01/04 09:38:27;;;;;;;7.15;2.90;;;;;;;;;;4971270;28;20444;-48
2024/01/04 09:41:00;;;;;;;6.00;2.75;;;;;;;;;;4971810;28;20097;-47
2024/01/04 09:43:29;;;;;;;6.68;3.05;;;;;;;;;;4971040;28;20040;-50
2024/01/04 09:45:58;;;;;;;5.35;2.60;;;;;;;;;;4986882;28;20022;-50
2024/01/04 09:48:25;;;;;;;6.40;2.20;;;;;;;;;;4988036;28;20073;-48
2024/01/04 09:50:51;;;;;;;7.45;2.35;;;;;;;;;;4985754;28;20030;-51
2024/01/04 09:53:17;;;;;;;7.45;3.40;;;;;;;;;;4990377;28;21534;-49
2024/01/04 09:55:42;;;;;;;11.07;4.72;;;;;;;;;;4988261;28;20042;-51
2024/01/04 09:58:10;;;;;;;9.07;3.25;;;;;;;;;;4989993;28;20037;-51
2024/01/04 10:00:36;;;;;;;8.27;3.20;;;;;;;;;;4991310;28;20026;-47
2024/01/04 10:03:04;;;;;;;7.90;4.70;;;;;;;;;;4990417;28;20419;-49
2024/01/04 10:05:32;;;;;;;10.23;3.45;;;;;;;;;;4986511;28;20022;-48
2024/01/04 10:08:29;;;;;;;5.80;3.72;;;;;;;;;;4978236;28;20496;-52
2024/01/04 10:11:00;;;;;;;8.02;3.45;;;;;;;;;;4991572;28;20571;-48
2024/01/04 10:13:29;;;;;;;17.23;2.88;;;;;;;;;;4983770;28;20046;-50
2024/01/04 10:15:54;;;;;;;10.30;3.42;;;;;;;;;;4992198;28;20033;-48
2024/01/04 10:18:21;;;;;;;7.03;2.08;;;;;;;;;;4962845;28;20035;-49
2024/01/04 10:21:05;;;;;;;7.20;2.20;;;;;;;;;;4979778;28;20054;-50
2024/01/04 10:23:31;;;;;;;11.82;4.13;;;;;;;;;;4983464;28;20038;-47
2024/01/04 10:26:11;;;;;;;6.10;2.58;;;;;;;;;;4967388;28;20030;-47
2024/01/04 10:28:38;;;;;;;8.77;3.25;;;;;;;;;;4988819;28;20508;-49
2024/01/04 10:31:11;;;;;;;7.53;2.20;;;;;;;;;;4996960;28;20030;-52
2024/01/04 10:33:37;;;;;;;8.85;3.45;;;;;;;;;;4988523;28;20060;-46
2024/01/04 10:36:10;;;;;;;4.60;1.30;;;;;;;;;;4977550;28;20030;-51
2024/01/04 10:38:36;;;;;;;6.22;1.70;;;;;;;;;;4991571;28;20184;-50
2024/01/04 10:41:02;;;;;;;9.27;3.35;;;;;;;;;;4984879;28;20030;-47
2024/01/04 10:43:30;;;;;;;10.13;2.22;;;;;;;;;;4983298;28;20046;-51
2024/01/04 10:46:08;;;;;;;6.90;2.17;;;;;;;;;;4986982;28;20030;-52
2024/01/04 10:48:38;;;;;;;5.82;1.50;;;;;;;;;;4980464;28;20117;-49
2024/01/04 10:51:05;;;;;;;11.05;2.70;;;;;;;;;;4980003;28;20050;-50
2024/01/04 10:53:35;;;;;;;5.43;1.65;;;;;;;;;;4986857;28;20070;-49
2024/01/04 10:56:03;;;;;;;7.07;1.95;;;;;;;;;;4989678;28;20086;-48
2024/01/04 10:58:34;;;;;;;6.47;2.17;;;;;;;;;;4976691;28;20043;-48
2024/01/04 11:01:03;;;;;;;4.13;1.35;;;;;;;;;;5006027;28;20058;-50
2024/01/04 11:03:30;;;;;;;9.38;2.65;;;;;;;;;;4985156;28;20493;-52
2024/01/04 11:05:59;;;;;;;6.82;1.65;;;;;;;;;;4990624;28;20117;-46
2024/01/04 11:08:25;;;;;;;9.10;3.33;;;;;;;;;;4989214;28;20038;-49
2024/01/04 11:10:52;;;;;;;6.03;2.13;;;;;;;;;;4989585;28;20023;-53
2024/01/04 11:13:18;;;;;;;6.32;1.58;;;;;;;;;;4988338;28;20449;-48
2024/01/04 11:15:44;;;;;;;6.63;2.15;;;;;;;;;;4990677;28;20026;-49
2024/01/04 11:18:22;;;;;;;7.60;1.98;;;;;;;;;;4970042;28;20030;-47
2024/01/04 11:20:50;;;;;;;5.57;1.73;;;;;;;;;;4998143;28;20034;-48
2024/01/04 11:23:39;;;;;;;5.00;1.83;;;;;;;;;;4981817;28;20656;-49
2024/01/04 11:26:07;;;;;;;7.60;1.77;;;;;;;;;;4991927;28;20489;-47
2024/01/04 11:28:34;;;;;;;8.15;1.95;;;;;;;;;;4992413;28;20030;-50
2024/01/04 11:31:00;;;;;;;6.38;2.45;;;;;;;;;;4973198;28;20060;-49
2024/01/04 11:33:32;;;;;;;4.78;1.35;;;;;;;;;;4972741;28;20074;-50
2024/01/04 11:35:58;;;;;;;6.97;2.15;;;;;;;;;;4985040;28;20057;-47
2024/01/04 11:38:24;;;;;;;5.40;1.63;;;;;;;;;;4970765;28;20042;-48
2024/01/04 11:40:50;;;;;;;9.90;3.63;;;;;;;;;;4994748;28;20610;-46
2024/01/04 11:43:16;;;;;;;7.43;2.17;;;;;;;;;;4989235;28;20029;-51
2024/01/04 11:45:45;;;;;;;7.07;1.40;;;;;;;;;;4997215;28;20026;-48
2024/01/04 11:48:11;;;;;;;4.07;1.38;;;;;;;;;;4992836;28;20051;-51
2024/01/04 11:50:47;;;;;;;4.55;1.95;;;;;;;;;;4988774;28;20026;-50
2024/01/04 11:53:14;;;;;;;4.43;1.50;;;;;;;;;;4989078;28;20030;-49
2024/01/04 11:55:41;;;;;;;4.50;2.03;;;;;;;;;;4990468;28;20023;-49
2024/01/04 11:58:13;;;;;;;5.90;2.35;;;;;;;;;;4981020;28;20108;-47
2024/01/04 12:00:46;;;;;;;3.78;2.13;;;;;;;;;;4987548;28;20042;-49
2024/01/04 12:03:12;;;;;;;8.02;3.45;;;;;;;;;;4986525;28;20026;-49
2024/01/04 12:05:41;;;;;;;4.75;1.80;;;;;;;;;;4992390;28;20033;-48
2024/01/04 12:08:07;;;;;;;6.60;1.65;;;;;;;;;;4996853;28;20026;-48
2024/01/04 12:10:33;;;;;;;6.00;2.00;;;;;;;;;;4987025;28;20026;-48
2024/01/04 12:12:59;;;;;;;5.10;2.05;;;;;;;;;;4983312;28;20038;-46
2024/01/04 12:15:24;;;;;;;4.75;2.17;;;;;;;;;;4994381;28;20386;-49
2024/01/04 12:17:49;;;;;;;3.80;1.52;;;;;;;;;;4994518;28;20572;-51
2024/01/04 12:20:15;;;;;;;6.75;1.55;;;;;;;;;;5002832;28;20042;-52
2024/01/04 12:22:40;;;;;;;5.95;1.80;;;;;;;;;;4983284;28;20097;-51
2024/01/04 12:25:07;;;;;;;5.18;2.05;;;;;;;;;;4986692;28;20611;-50
2024/01/04 12:27:36;;;;;;;6.18;2.35;;;;;;;;;;4978540;28;20034;-48
2024/01/04 12:30:10;;;;;;;8.23;2.35;;;;;;;;;;4983222;28;20061;-51
2024/01/04 12:32:36;;;;;;;5.85;2.13;;;;;;;;;;5001639;28;20482;-48
2024/01/04 12:35:05;;;;;;;5.68;1.88;;;;;;;;;;4990225;28;20040;-49
2024/01/04 12:37:30;;;;;;;5.13;1.30;;;;;;;;;;4994638;28;20387;-51
2024/01/04 12:40:11;;;;;;;4.40;1.52;;;;;;;;;;4989797;28;20034;-51
2024/01/04 12:42:37;;;;;;;4.07;1.48;;;;;;;;;;4986949;28;20029;-51
2024/01/04 12:45:08;;;;;;;10.30;2.78;;;;;;;;;;4987929;28;20085;-47
2024/01/04 12:47:34;;;;;;;5.82;1.73;;;;;;;;;;4984336;28;20029;-48
2024/01/04 12:50:00;;;;;;;5.07;1.30;;;;;;;;;;4982555;28;20106;-48
2024/01/04 12:52:25;;;;;;;5.90;1.70;;;;;;;;;;4983445;28;20478;-48
2024/01/04 12:54:51;;;;;;;10.43;3.00;;;;;;;;;;4980183;28;20190;-50
2024/01/04 12:57:16;;;;;;;5.18;2.40;;;;;;;;;;4992335;28;20037;-50
2024/01/04 12:59:42;;;;;;;4.70;1.90;;;;;;;;;;4991011;28;20038;-49
2024/01/04 13:02:08;;;;;;;10.85;3.38;;;;;;;;;;4992246;28;20027;-50
2024/01/04 13:04:33;;;;;;;11.13;3.42;;;;;;;;;;4989150;28;20133;-50
2024/01/04 13:06:59;;;;;;;7.43;3.55;;;;;;;;;;5001905;28;20057;-49
2024/01/04 13:09:25;;;;;;;6.20;2.25;;;;;;;;;;4986753;28;20505;-50
2024/01/04 13:11:50;;;;;;;5.75;2.55;;;;;;;;;;4996429;28;20057;-48
2024/01/04 13:14:16;;;;;;;4.20;2.08;;;;;;;;;;4977198;28;20030;-48
2024/01/04 13:16:41;;;;;;;5.47;2.75;;;;;;;;;;4987163;28;20034;-48
2024/01/04 13:19:07;;;;;;;10.18;3.15;;;;;;;;;;4988665;28;20132;-49
2024/01/04 13:21:32;;;;;;;8.85;2.30;;;;;;;;;;4993177;28;20022;-51
2024/01/04 13:23:58;;;;;;;8.25;2.58;;;;;;;;;;4984617;28;20046;-49
2024/01/04 13:26:23;;;;;;;6.50;2.55;;;;;;;;;;4978684;28;20024;-49
2024/01/04 13:28:49;;;;;;;5.25;1.90;;;;;;;;;;4992663;28;20146;-50
2024/01/04 13:31:14;;;;;;;6.43;1.83;;;;;;;;;;4997239;28;20084;-48
2024/01/04 13:33:41;;;;;;;4.45;2.20;;;;;;;;;;4997168;28;20041;-48
2024/01/04 13:36:06;;;;;;;3.67;2.05;;;;;;;;;;4985244;28;20043;-50
2024/01/04 13:38:31;;;;;;;5.07;1.77;;;;;;;;;;4992255;28;20639;-53
2024/01/04 13:40:57;;;;;;;5.28;2.95;;;;;;;;;;4990808;28;20031;-50
2024/01/04 13:43:22;;;;;;;5.85;2.28;;;;;;;;;;4978279;28;20092;-47
2024/01/04 13:45:51;;;;;;;7.85;1.70;;;;;;;;;;4992160;28;20081;-50
2024/01/04 13:48:17;;;;;;;6.57;2.60;;;;;;;;;;4981399;28;20488;-51
2024/01/04 13:50:43;;;;;;;7.70;2.40;;;;;;;;;;4989617;28;20493;-47
2024/01/04 13:53:12;;;;;;;6.13;2.50;;;;;;;;;;4988932;28;20042;-51
2024/01/04 13:55:38;;;;;;;9.27;2.78;;;;;;;;;;4982276;28;20042;-49
2024/01/04 13:58:04;;;;;;;6.05;2.35;;;;;;;;;;4988827;28;20030;-47
2024/01/04 14:00:31;;;;;;;5.40;2.17;;;;;;;;;;4994318;28;20033;-47
2024/01/04 14:02:57;;;;;;;5.03;1.67;;;;;;;;;;4992097;28;20480;-44
2024/01/04 14:05:22;;;;;;;6.45;2.05;;;;;;;;;;4983510;28;20097;-49
2024/01/04 14:07:48;;;;;;;5.80;1.92;;;;;;;;;;4986510;28;20092;-53
2024/01/04 14:10:13;;;;;;;4.60;2.20;;;;;;;;;;4988306;28;20035;-53
2024/01/04 14:12:40;;;;;;;4.22;2.22;;;;;;;;;;4987354;28;20048;-49
2024/01/04 14:15:06;;;;;;;3.25;1.30;;;;;;;;;;4980873;28;20497;-51
2024/01/04 14:17:32;;;;;;;14.38;2.88;;;;;;;;;;4990868;28;20465;-48
2024/01/04 14:19:58;;;;;;;11.63;2.10;;;;;;;;;;4980834;28;20046;-51
2024/01/04 14:22:23;;;;;;;5.63;2.50;;;;;;;;;;4975025;28;20510;-50
2024/01/04 14:24:48;;;;;;;12.60;1.92;;;;;;;;;;4983764;28;20066;-50
2024/01/04 14:27:14;;;;;;;7.53;2.28;;;;;;;;;;4982272;28;20037;-52
2024/01/04 14:29:39;;;;;;;15.10;3.90;;;;;;;;;;4982517;28;20038;-49
2024/01/04 14:32:05;;;;;;;11.70;1.77;;;;;;;;;;4991777;28;20776;-51
2024/01/04 14:34:31;;;;;;;6.53;2.00;;;;;;;;;;4984321;28;20046;-50